createdAt,value
2023-05-12T00:02:03.241Z,14.70
2023-05-12T00:04:30.626Z,14.70
2023-05-12T00:06:58.054Z,14.70
2023-05-12T00:09:25.308Z,14.70
2023-05-12T00:11:52.560Z,14.80
2023-05-12T00:14:20.446Z,14.90
2023-05-12T00:16:51.739Z,14.80
2023-05-12T00:19:20.201Z,14.70
2023-05-12T00:21:47.879Z,14.90
2023-05-12T00:24:15.275Z,15.00
2023-05-12T00:26:42.463Z,15.20
2023-05-12T00:29:09.658Z,14.90
2023-05-12T00:31:36.886Z,14.70
2023-05-12T00:34:03.773Z,14.70
2023-05-12T00:36:30.664Z,14.80
2023-05-12T00:38:58.384Z,14.60
2023-05-12T00:41:25.834Z,14.60
2023-05-12T00:43:52.840Z,14.60
2023-05-12T00:46:20.991Z,14.60
2023-05-12T00:48:49.017Z,14.60
2023-05-12T00:51:17.004Z,14.60
2023-05-12T00:53:50.008Z,14.50
2023-05-12T00:56:19.751Z,14.50
2023-05-12T00:58:47.045Z,14.40
2023-05-12T01:01:14.069Z,14.60
2023-05-12T01:03:41.027Z,14.70
2023-05-12T01:06:16.744Z,14.60
2023-05-12T01:08:44.038Z,14.60
2023-05-12T01:11:10.805Z,14.60
2023-05-12T01:13:39.525Z,14.90
2023-05-12T01:16:09.890Z,15.00
2023-05-12T01:18:40.348Z,15.10
2023-05-12T01:21:08.062Z,14.90
2023-05-12T01:23:49.331Z,14.60
2023-05-12T01:26:16.119Z,14.80
2023-05-12T01:28:43.225Z,14.70
2023-05-12T01:31:41.088Z,14.60
2023-05-12T01:34:29.940Z,14.70
2023-05-12T01:36:56.679Z,14.70
2023-05-12T01:39:23.437Z,14.80
2023-05-12T01:41:50.199Z,14.50
2023-05-12T01:44:17.158Z,14.50
2023-05-12T01:46:43.960Z,14.30
2023-05-12T01:49:10.773Z,14.30
2023-05-12T01:51:37.535Z,13.80
2023-05-12T01:54:04.511Z,13.60
2023-05-12T01:56:31.276Z,14.00
2023-05-12T01:58:58.084Z,14.30
2023-05-12T02:01:28.517Z,14.40
2023-05-12T02:03:56.855Z,14.50
2023-05-12T02:06:23.825Z,14.40
2023-05-12T02:08:50.649Z,14.50
2023-05-12T02:11:17.650Z,14.50
2023-05-12T02:13:44.732Z,14.60
2023-05-12T02:16:12.144Z,14.40
2023-05-12T02:18:39.436Z,14.30
2023-05-12T02:21:06.888Z,14.40
2023-05-12T02:23:33.669Z,14.40
2023-05-12T02:26:00.583Z,14.40
2023-05-12T02:28:27.323Z,14.50
2023-05-12T02:30:54.352Z,14.70
2023-05-12T02:33:22.949Z,14.80
2023-05-12T02:35:49.877Z,14.70
2023-05-12T02:38:16.639Z,14.70
2023-05-12T02:40:43.603Z,14.60
2023-05-12T02:43:10.333Z,14.50
2023-05-12T02:45:37.319Z,14.40
2023-05-12T02:48:04.502Z,14.60
2023-05-12T02:50:31.549Z,14.70
2023-05-12T02:52:58.338Z,14.50
2023-05-12T02:55:25.142Z,14.40
2023-05-12T02:57:51.917Z,14.50
2023-05-12T03:00:19.106Z,14.40
2023-05-12T03:02:46.089Z,14.50
2023-05-12T03:05:12.949Z,14.50
2023-05-12T03:07:39.768Z,14.40
2023-05-12T03:10:07.750Z,14.40
2023-05-12T03:12:34.507Z,14.60
2023-05-12T03:15:01.404Z,14.60
2023-05-12T03:17:28.259Z,14.60
2023-05-12T03:19:55.032Z,14.70
2023-05-12T03:22:21.898Z,14.50
2023-05-12T03:24:48.687Z,14.40
2023-05-12T03:27:15.486Z,14.40
2023-05-12T03:29:42.359Z,14.40
2023-05-12T03:32:09.156Z,14.40
2023-05-12T03:34:35.985Z,14.40
2023-05-12T03:37:02.786Z,14.10
2023-05-12T03:39:29.626Z,14.10
2023-05-12T03:41:56.439Z,14.10
2023-05-12T03:44:23.284Z,14.10
2023-05-12T03:46:50.147Z,14.20
2023-05-12T03:49:17.225Z,14.30
2023-05-12T03:51:44.012Z,14.30
2023-05-12T03:54:10.860Z,14.30
2023-05-12T03:56:37.625Z,14.40
2023-05-12T03:59:04.562Z,14.40
2023-05-12T04:01:31.745Z,14.50
2023-05-12T04:03:58.659Z,14.50
2023-05-12T04:06:25.444Z,14.40
2023-05-12T04:08:52.188Z,14.50
2023-05-12T04:11:18.965Z,14.40
2023-05-12T04:13:45.790Z,14.40
2023-05-12T04:16:12.575Z,14.40
2023-05-12T04:18:39.394Z,14.40
2023-05-12T04:21:06.237Z,14.60
2023-05-12T04:23:33.185Z,14.70
2023-05-12T04:26:00.119Z,14.90
2023-05-12T04:28:26.914Z,14.90
2023-05-12T04:30:53.700Z,14.90
2023-05-12T04:33:20.505Z,14.90
2023-05-12T04:35:47.271Z,14.90
2023-05-12T04:38:14.095Z,14.70
2023-05-12T04:40:41.088Z,14.50
2023-05-12T04:43:07.850Z,14.50
2023-05-12T04:45:34.626Z,14.30
2023-05-12T04:48:01.492Z,14.60
2023-05-12T04:50:28.335Z,14.60
2023-05-12T04:52:55.113Z,14.70
2023-05-12T04:55:22.296Z,14.40
2023-05-12T04:57:49.255Z,14.80
2023-05-12T05:00:16.206Z,14.80
2023-05-12T05:02:43.495Z,15.00
2023-05-12T05:05:10.584Z,14.90
2023-05-12T05:07:37.381Z,14.90
2023-05-12T05:10:04.756Z,14.80
2023-05-12T05:12:31.534Z,14.80
2023-05-12T05:14:58.329Z,14.40
2023-05-12T05:17:25.199Z,14.30
2023-05-12T05:19:58.320Z,14.80
2023-05-12T05:22:26.257Z,14.60
2023-05-12T05:24:53.077Z,14.60
2023-05-12T05:27:19.894Z,14.50
2023-05-12T05:29:46.695Z,14.50
2023-05-12T05:32:13.489Z,14.60
2023-05-12T05:34:40.282Z,14.80
2023-05-12T05:37:07.509Z,15.00
2023-05-12T05:39:34.279Z,15.20
2023-05-12T05:42:01.053Z,15.20
2023-05-12T05:44:27.810Z,15.20
2023-05-12T05:46:54.647Z,15.10
2023-05-12T05:49:21.516Z,14.70
2023-05-12T05:51:48.278Z,15.10
2023-05-12T05:54:15.113Z,15.00
2023-05-12T05:56:41.859Z,15.10
2023-05-12T05:59:09.794Z,14.70
2023-05-12T06:01:36.635Z,14.90
2023-05-12T06:04:03.695Z,14.90
2023-05-12T06:06:30.630Z,14.40
2023-05-12T06:08:57.428Z,14.40
2023-05-12T06:11:24.247Z,14.80
2023-05-12T06:13:51.004Z,15.10
2023-05-12T06:16:17.753Z,14.80
2023-05-12T06:18:44.678Z,15.10
2023-05-12T06:21:11.535Z,15.40
2023-05-12T06:23:38.354Z,15.10
2023-05-12T06:26:07.659Z,15.40
2023-05-12T06:28:34.454Z,15.40
2023-05-12T06:31:01.253Z,15.50
2023-05-12T06:33:28.125Z,15.30
2023-05-12T06:35:55.094Z,15.10
2023-05-12T06:38:21.876Z,15.20
2023-05-12T06:40:48.638Z,15.70
2023-05-12T06:43:15.543Z,15.90
2023-05-12T06:45:43.367Z,15.90
2023-05-12T06:48:10.377Z,15.90
2023-05-12T06:50:37.330Z,16.00
2023-05-12T06:53:06.133Z,16.10
2023-05-12T06:55:33.009Z,16.10
2023-05-12T06:57:59.972Z,16.40
2023-05-12T07:00:27.294Z,16.30
2023-05-12T07:02:54.181Z,16.40
2023-05-12T07:05:21.560Z,16.30
2023-05-12T07:07:48.593Z,16.50
2023-05-12T07:10:15.555Z,16.30
2023-05-12T07:12:42.375Z,16.30
2023-05-12T07:15:09.921Z,16.20
2023-05-12T07:17:36.776Z,16.50
2023-05-12T07:20:05.139Z,16.20
2023-05-12T07:22:32.666Z,15.90
2023-05-12T07:24:59.581Z,16.00
2023-05-12T07:27:26.810Z,15.90
2023-05-12T07:29:53.638Z,15.70
2023-05-12T07:32:20.632Z,15.60
2023-05-12T07:34:47.465Z,15.80
2023-05-12T07:37:14.298Z,15.90
2023-05-12T07:39:41.088Z,15.50
2023-05-12T07:42:08.073Z,15.40
2023-05-12T07:44:36.269Z,15.40
2023-05-12T07:47:03.092Z,15.50
2023-05-12T07:49:29.888Z,15.30
2023-05-12T07:51:56.677Z,15.40
2023-05-12T07:54:23.438Z,15.40
2023-05-12T07:56:50.542Z,15.40
2023-05-12T07:59:17.532Z,15.10
2023-05-12T08:01:45.030Z,15.00
2023-05-12T08:04:26.829Z,15.10
2023-05-12T08:06:58.603Z,15.30
2023-05-12T08:09:34.471Z,15.40
2023-05-12T08:12:07.107Z,15.60
2023-05-12T08:14:46.184Z,15.70
2023-05-12T08:17:29.285Z,15.90
2023-05-12T08:20:06.619Z,15.80
2023-05-12T08:22:33.825Z,16.00
2023-05-12T08:25:00.661Z,15.70
2023-05-12T08:27:27.570Z,15.80
2023-05-12T08:29:54.540Z,15.30
2023-05-12T08:32:22.322Z,15.70
2023-05-12T08:35:04.539Z,15.40
2023-05-12T08:37:44.211Z,15.20
2023-05-12T08:40:37.656Z,15.30
2023-05-12T08:43:41.416Z,15.40
2023-05-12T08:46:08.967Z,15.30
2023-05-12T08:48:39.396Z,15.30
2023-05-12T08:51:12.968Z,15.50
2023-05-12T08:53:41.837Z,15.30
2023-05-12T08:58:45.712Z,15.20
2023-05-12T09:01:14.693Z,15.00
2023-05-12T09:03:42.112Z,15.30
2023-05-12T09:06:10.806Z,15.10
2023-05-12T09:08:37.936Z,15.90
2023-05-12T09:11:04.828Z,15.70
2023-05-12T09:13:54.579Z,15.80
2023-05-12T09:16:29.260Z,15.80
2023-05-12T09:18:58.774Z,16.30
2023-05-12T09:21:26.896Z,16.10
2023-05-12T09:23:56.444Z,16.20
2023-05-12T09:26:24.785Z,16.40
2023-05-12T09:28:54.534Z,16.50
2023-05-12T09:31:23.851Z,17.10
2023-05-12T09:33:51.968Z,17.30
2023-05-12T09:36:21.175Z,17.20
2023-05-12T09:39:04.570Z,17.00
2023-05-12T09:41:39.208Z,17.40
2023-05-12T09:44:08.463Z,17.30
2023-05-12T09:46:36.447Z,17.60
2023-05-12T09:49:03.709Z,17.60
2023-05-12T09:51:31.216Z,17.90
2023-05-12T09:53:59.069Z,17.10
2023-05-12T09:56:32.293Z,17.40
2023-05-12T09:58:59.601Z,17.40
2023-05-12T10:01:28.080Z,17.50
2023-05-12T10:03:57.242Z,17.90
2023-05-12T10:06:41.835Z,17.50
2023-05-12T10:09:20.496Z,17.10
2023-05-12T10:11:47.942Z,17.40
2023-05-12T10:14:15.490Z,17.70
2023-05-12T10:16:42.711Z,18.00
2023-05-12T10:19:11.181Z,18.10
2023-05-12T10:21:38.909Z,18.30
2023-05-12T10:24:06.320Z,18.80
2023-05-12T10:26:36.329Z,19.40
2023-05-12T10:29:03.665Z,19.50
2023-05-12T10:31:31.054Z,18.90
2023-05-12T10:34:02.329Z,19.10
2023-05-12T10:36:29.976Z,19.10
2023-05-12T10:39:06.240Z,18.20
2023-05-12T10:41:34.985Z,18.40
2023-05-12T10:44:02.241Z,18.20
2023-05-12T10:46:30.367Z,18.00
2023-05-12T10:49:08.828Z,18.00
2023-05-12T10:51:51.528Z,18.00
2023-05-12T10:54:21.559Z,18.00
2023-05-12T10:56:49.931Z,17.50
2023-05-12T10:59:22.849Z,17.40
2023-05-12T11:01:58.896Z,17.60
2023-05-12T11:04:37.550Z,18.00
2023-05-12T11:07:07.937Z,17.80
2023-05-12T11:12:16.572Z,18.20
2023-05-12T11:14:45.570Z,18.30
2023-05-12T11:17:13.740Z,18.10
2023-05-12T11:19:45.102Z,17.80
2023-05-12T11:22:12.811Z,17.70
2023-05-12T11:24:41.241Z,17.50
2023-05-12T11:27:13.601Z,17.70
2023-05-12T11:29:41.600Z,17.20
2023-05-12T11:32:12.558Z,17.20
2023-05-12T11:34:39.951Z,17.40
2023-05-12T11:37:07.161Z,17.30
2023-05-12T11:39:34.438Z,17.40
2023-05-12T11:42:13.033Z,17.50
2023-05-12T11:44:48.219Z,18.00
2023-05-12T11:47:17.020Z,17.80
2023-05-12T11:49:52.824Z,18.20
2023-05-12T11:52:21.536Z,18.20
2023-05-12T11:54:52.755Z,18.00
2023-05-12T11:57:35.041Z,18.30
2023-05-12T12:00:07.698Z,18.40
2023-05-12T12:02:39.807Z,18.60
2023-05-12T12:05:18.206Z,18.40
2023-05-12T12:07:45.759Z,17.90
2023-05-12T12:10:13.860Z,18.10
2023-05-12T12:12:41.795Z,18.40
2023-05-12T12:15:09.977Z,18.70
2023-05-12T12:17:37.503Z,18.50
2023-05-12T12:20:05.354Z,18.40
2023-05-12T12:22:34.481Z,18.40
2023-05-12T12:25:02.747Z,18.00
2023-05-12T12:27:29.985Z,17.90
2023-05-12T12:29:57.300Z,17.90
2023-05-12T12:32:24.576Z,17.60
2023-05-12T12:34:52.854Z,17.60
2023-05-12T12:37:20.041Z,17.50
2023-05-12T12:39:47.989Z,17.80
2023-05-12T12:42:15.683Z,17.40
2023-05-12T12:44:43.105Z,17.40
2023-05-12T12:47:10.385Z,17.40
2023-05-12T12:49:37.702Z,17.70
2023-05-12T12:52:05.085Z,18.00
2023-05-12T12:54:32.871Z,18.10
2023-05-12T12:57:00.120Z,18.70
2023-05-12T12:59:27.492Z,18.70
2023-05-12T13:01:55.086Z,18.90
2023-05-12T13:04:23.012Z,18.30
2023-05-12T13:06:50.371Z,18.40
2023-05-12T13:09:19.651Z,18.10
2023-05-12T13:11:47.599Z,17.90
2023-05-12T13:14:14.829Z,17.60
2023-05-12T13:16:42.200Z,18.10
2023-05-12T13:19:09.570Z,18.40
2023-05-12T13:21:37.754Z,17.80
2023-05-12T13:24:05.100Z,18.00
2023-05-12T13:26:32.279Z,17.60
2023-05-12T13:28:59.442Z,17.50
2023-05-12T13:31:26.698Z,17.20
2023-05-12T13:33:54.110Z,17.10
2023-05-12T13:36:21.282Z,17.10
2023-05-12T13:38:48.486Z,17.40
2023-05-12T13:41:15.812Z,17.40
2023-05-12T13:43:43.653Z,17.70
2023-05-12T13:46:10.961Z,17.70
2023-05-12T13:48:38.222Z,17.60
2023-05-12T13:51:05.706Z,18.00
2023-05-12T13:53:32.870Z,18.30
2023-05-12T13:56:00.082Z,18.10
2023-05-12T13:58:27.332Z,18.30
2023-05-12T14:00:54.503Z,17.90
2023-05-12T14:03:21.774Z,18.10
2023-05-12T14:05:48.948Z,17.80
2023-05-12T14:08:16.606Z,17.70
2023-05-12T14:10:44.457Z,17.70
2023-05-12T14:13:12.627Z,17.70
2023-05-12T14:15:48.793Z,17.50
2023-05-12T14:18:16.856Z,17.60
2023-05-12T14:20:44.019Z,17.10
2023-05-12T14:23:11.627Z,17.30
2023-05-12T14:25:38.833Z,18.10
2023-05-12T14:28:06.245Z,17.90
2023-05-12T14:30:35.224Z,17.90
2023-05-12T14:33:03.116Z,17.90
2023-05-12T14:35:30.580Z,17.70
2023-05-12T14:37:57.819Z,18.00
2023-05-12T14:40:25.411Z,18.40
2023-05-12T14:42:52.668Z,17.80
2023-05-12T14:45:20.094Z,18.30
2023-05-12T14:47:47.601Z,18.40
2023-05-12T14:50:15.020Z,18.70
2023-05-12T14:52:42.318Z,18.50
2023-05-12T14:55:13.834Z,18.80
2023-05-12T14:57:44.650Z,18.70
2023-05-12T15:00:13.672Z,18.20
2023-05-12T15:02:42.337Z,18.50
2023-05-12T15:05:11.135Z,18.60
2023-05-12T15:07:38.308Z,18.30
2023-05-12T15:10:06.155Z,18.20
2023-05-12T15:12:34.172Z,18.10
2023-05-12T15:15:03.850Z,18.10
2023-05-12T15:17:31.522Z,18.30
2023-05-12T15:19:58.776Z,18.30
2023-05-12T15:22:26.108Z,18.20
2023-05-12T15:24:53.288Z,18.40
2023-05-12T15:27:20.506Z,18.40
2023-05-12T15:29:47.901Z,18.40
2023-05-12T15:32:15.658Z,18.50
2023-05-12T15:34:42.823Z,18.10
2023-05-12T15:37:11.194Z,18.10
2023-05-12T15:39:38.355Z,17.50
2023-05-12T15:42:07.281Z,17.20
2023-05-12T15:44:34.689Z,17.00
2023-05-12T15:47:01.904Z,16.80
2023-05-12T15:49:29.115Z,16.70
2023-05-12T15:51:56.280Z,16.70
2023-05-12T15:54:23.518Z,16.90
2023-05-12T15:56:50.673Z,17.20
2023-05-12T15:59:17.817Z,16.90
2023-05-12T16:01:45.012Z,16.90
2023-05-12T16:04:13.023Z,17.00
2023-05-12T16:06:40.579Z,17.20
2023-05-12T16:09:07.767Z,17.10
2023-05-12T16:11:34.933Z,17.20
2023-05-12T16:14:02.617Z,16.60
2023-05-12T16:16:30.525Z,16.70
2023-05-12T16:18:57.869Z,17.00
2023-05-12T16:21:25.260Z,17.20
2023-05-12T16:23:52.750Z,17.10
2023-05-12T16:26:20.088Z,17.20
2023-05-12T16:28:47.595Z,16.90
2023-05-12T16:31:17.849Z,16.40
2023-05-12T16:33:45.538Z,16.30
2023-05-12T16:36:13.070Z,16.10
2023-05-12T16:38:40.811Z,16.40
2023-05-12T16:41:07.989Z,16.90
2023-05-12T16:43:35.246Z,16.80
2023-05-12T16:46:03.072Z,17.00
2023-05-12T16:48:34.249Z,17.00
2023-05-12T16:51:05.358Z,17.20
2023-05-12T16:53:32.845Z,17.00
2023-05-12T16:56:00.218Z,16.80
2023-05-12T16:58:33.539Z,17.10
2023-05-12T17:01:01.207Z,17.30
2023-05-12T17:03:29.163Z,16.60
2023-05-12T17:05:56.686Z,17.10
2023-05-12T17:08:24.822Z,17.30
2023-05-12T17:10:52.021Z,17.20
2023-05-12T17:13:19.322Z,17.30
2023-05-12T17:15:46.882Z,17.40
2023-05-12T17:18:14.142Z,17.20
2023-05-12T17:20:41.592Z,16.90
2023-05-12T17:23:09.143Z,17.00
2023-05-12T17:25:36.703Z,16.60
2023-05-12T17:28:04.539Z,16.70
2023-05-12T17:30:31.965Z,16.50
2023-05-12T17:32:59.567Z,16.80
2023-05-12T17:35:26.802Z,16.60
2023-05-12T17:37:55.440Z,16.70
2023-05-12T17:40:23.010Z,16.70
2023-05-12T17:42:50.291Z,16.70
2023-05-12T17:45:18.369Z,16.80
2023-05-12T17:47:46.077Z,16.80
2023-05-12T17:50:14.997Z,16.80
2023-05-12T17:52:43.024Z,16.90
2023-05-12T17:55:10.659Z,16.90
2023-05-12T17:57:38.502Z,16.80
2023-05-12T18:00:09.992Z,16.80
2023-05-12T18:02:38.554Z,16.80
2023-05-12T18:05:07.362Z,16.90
2023-05-12T18:07:34.990Z,16.90
2023-05-12T18:10:02.274Z,16.90
2023-05-12T18:12:29.723Z,16.90
2023-05-12T18:14:56.869Z,16.90
2023-05-12T18:17:24.163Z,16.70
2023-05-12T18:19:51.563Z,16.60
2023-05-12T18:22:18.949Z,16.80
2023-05-12T18:24:46.309Z,16.40
2023-05-12T18:27:13.534Z,16.50
2023-05-12T18:29:41.012Z,16.30
2023-05-12T18:32:08.172Z,16.20
2023-05-12T18:34:35.746Z,16.10
2023-05-12T18:37:02.909Z,16.50
2023-05-12T18:39:30.073Z,16.70
2023-05-12T18:41:57.693Z,16.60
2023-05-12T18:44:24.890Z,16.10
2023-05-12T18:46:52.127Z,16.10
2023-05-12T18:49:19.392Z,16.00
2023-05-12T18:51:46.585Z,16.50
2023-05-12T18:54:13.819Z,16.40
2023-05-12T18:56:41.144Z,16.40
2023-05-12T18:59:08.363Z,16.20
2023-05-12T19:01:35.622Z,16.10
2023-05-12T19:04:03.940Z,16.30
2023-05-12T19:06:31.131Z,16.10
2023-05-12T19:08:58.330Z,16.20
2023-05-12T19:11:25.629Z,16.50
2023-05-12T19:13:52.827Z,16.40
2023-05-12T19:16:20.166Z,16.50
2023-05-12T19:18:48.248Z,16.50
2023-05-12T19:21:15.854Z,16.50
2023-05-12T19:23:43.081Z,16.40
2023-05-12T19:26:10.964Z,16.10
2023-05-12T19:28:38.161Z,15.90
2023-05-12T19:31:05.588Z,16.00
2023-05-12T19:33:34.740Z,15.80
2023-05-12T19:36:02.172Z,15.90
2023-05-12T19:38:29.308Z,16.10
2023-05-12T19:40:56.518Z,16.20
2023-05-12T19:43:23.716Z,16.10
2023-05-12T19:45:50.918Z,16.40
2023-05-12T19:48:19.212Z,16.50
2023-05-12T19:50:46.860Z,16.40
2023-05-12T19:53:14.043Z,16.30
2023-05-12T19:55:41.240Z,16.10
2023-05-12T19:58:08.914Z,16.00
2023-05-12T20:00:39.288Z,16.10
2023-05-12T20:03:07.031Z,16.00
2023-05-12T20:05:37.618Z,16.00
2023-05-12T20:08:05.276Z,16.10
2023-05-12T20:10:32.440Z,15.90
2023-05-12T20:13:01.168Z,15.80
2023-05-12T20:15:28.681Z,15.80
2023-05-12T20:17:56.127Z,15.80
2023-05-12T20:20:23.539Z,15.80
2023-05-12T20:22:50.795Z,15.90
2023-05-12T20:25:18.297Z,15.50
2023-05-12T20:27:45.901Z,15.40
2023-05-12T20:30:13.690Z,15.30
2023-05-12T20:32:41.052Z,15.40
2023-05-12T20:35:09.111Z,15.30
2023-05-12T20:37:36.477Z,15.50
2023-05-12T20:40:05.261Z,15.20
2023-05-12T20:42:32.409Z,15.50
2023-05-12T20:44:59.541Z,15.50
2023-05-12T20:47:27.564Z,15.50
2023-05-12T20:49:58.644Z,15.20
2023-05-12T20:52:28.818Z,15.40
2023-05-12T20:54:57.877Z,15.40
2023-05-12T20:57:26.119Z,15.50
2023-05-12T20:59:53.344Z,15.30
2023-05-12T21:02:20.639Z,15.60
2023-05-12T21:04:47.936Z,15.80
2023-05-12T21:07:15.126Z,15.80
2023-05-12T21:09:42.355Z,15.90
2023-05-12T21:12:09.705Z,15.70
2023-05-12T21:14:45.016Z,15.50
2023-05-12T21:17:12.915Z,15.80
2023-05-12T21:19:41.358Z,15.70
2023-05-12T21:22:10.448Z,15.70
2023-05-12T21:24:39.367Z,15.50
2023-05-12T21:27:08.010Z,15.70
2023-05-12T21:29:35.604Z,15.60
2023-05-12T21:32:03.020Z,15.70
2023-05-12T21:34:31.378Z,15.20
2023-05-12T21:36:59.960Z,15.20
2023-05-12T21:39:27.733Z,15.20
2023-05-12T21:41:54.908Z,15.20
2023-05-12T21:44:22.109Z,15.10
2023-05-12T21:46:49.450Z,15.30
2023-05-12T21:49:16.730Z,15.00
2023-05-12T21:51:43.966Z,14.60
2023-05-12T21:54:12.231Z,14.40
2023-05-12T21:56:39.429Z,14.30
2023-05-12T21:59:06.655Z,14.10
2023-05-12T22:01:33.885Z,14.20
2023-05-12T22:04:01.222Z,14.10
2023-05-12T22:06:28.431Z,13.90
2023-05-12T22:08:55.763Z,13.80
2023-05-12T22:11:23.453Z,13.80
2023-05-12T22:13:51.086Z,13.90
2023-05-12T22:16:21.764Z,14.10
2023-05-12T22:18:53.019Z,13.80
2023-05-12T22:21:20.405Z,13.70
2023-05-12T22:23:47.602Z,13.90
2023-05-12T22:26:14.766Z,13.60
2023-05-12T22:28:42.529Z,14.00
2023-05-12T22:31:09.841Z,14.30
2023-05-12T22:33:37.097Z,14.20
2023-05-12T22:36:04.430Z,14.40
2023-05-12T22:38:31.610Z,14.00
2023-05-12T22:40:58.753Z,14.00
2023-05-12T22:43:26.281Z,14.30
2023-05-12T22:45:55.676Z,13.80
2023-05-12T22:48:23.280Z,14.00
2023-05-12T22:50:53.234Z,14.10
2023-05-12T22:53:20.050Z,14.30
2023-05-12T22:55:47.256Z,14.30
2023-05-12T22:58:14.270Z,14.00
2023-05-12T23:00:41.359Z,14.20
2023-05-12T23:03:08.172Z,14.20
2023-05-12T23:05:34.948Z,14.20
2023-05-12T23:08:03.113Z,14.40
2023-05-12T23:10:29.970Z,13.90
2023-05-12T23:12:56.815Z,13.90
2023-05-12T23:15:23.989Z,14.20
2023-05-12T23:17:50.813Z,14.20
2023-05-12T23:20:17.666Z,13.60
2023-05-12T23:22:44.697Z,13.50
2023-05-12T23:25:11.489Z,13.80
2023-05-12T23:27:38.258Z,14.00
2023-05-12T23:30:06.420Z,13.60
2023-05-12T23:32:33.361Z,13.60
2023-05-12T23:35:00.417Z,13.70
2023-05-12T23:37:27.345Z,13.30
2023-05-12T23:39:54.322Z,13.50
2023-05-12T23:42:21.202Z,13.30
2023-05-12T23:44:47.955Z,13.30
2023-05-12T23:47:14.708Z,13.30
2023-05-12T23:49:41.490Z,13.60
2023-05-12T23:52:08.526Z,13.70
2023-05-12T23:54:35.283Z,13.50
2023-05-12T23:57:03.016Z,13.60
2023-05-12T23:59:30.771Z,13.80
